This is the latest recevied weather packets stored in our database for station/object OE7BJT-13. If no packets are shown the sender has not sent any weather packets the latest 10 day(s).
| Time | Temp. | Humidity | Pressure | Rain* | Wind** | Luminosity | Snow |
|---|---|---|---|---|---|---|---|
| 1777921846 | 20.56° C | 29% | 1012 hPa | - | - | - | - |
| 1777921240 | 20.56° C | 29% | 1012 hPa | - | - | - | - |
| 1777920029 | 20.56° C | 29% | 1012 hPa | - | - | - | - |
| 1777919423 | 21.11° C | 30% | 1012 hPa | - | - | - | - |
| 1777918212 | 20.56° C | 37% | 1012 hPa | - | - | - | - |
| 1777917607 | 20.56° C | 39% | 1012 hPa | - | - | - | - |
| 1777917001 | 20.56° C | 40% | 1012 hPa | - | - | - | - |
| 1777916396 | 20.56° C | 42% | 1012 hPa | - | - | - | - |
| 1777915790 | 21.67° C | 34% | 1012 hPa | - | - | - | - |
| 1777915184 | 21.67° C | 33% | 1012 hPa | - | - | - | - |
| 1777914579 | 21.67° C | 30% | 1011 hPa | - | - | - | - |
| 1777913973 | 22.22° C | 30% | 1011 hPa | - | - | - | - |
| 1777913368 | 22.22° C | 34% | 1011 hPa | - | - | - | - |
| 1777912762 | 22.22° C | 31% | 1011 hPa | - | - | - | - |
| 1777912156 | 22.22° C | 31% | 1011 hPa | - | - | - | - |
| 1777911551 | 22.78° C | 31% | 1011 hPa | - | - | - | - |
| 1777910340 | 23.33° C | 23% | 1011 hPa | - | - | - | - |
| 1777909734 | 23.89° C | 26% | 1011 hPa | - | - | - | - |
| 1777909128 | 23.89° C | 24% | 1011 hPa | - | - | - | - |
| 1777908523 | 23.89° C | 23% | 1011 hPa | - | - | - | - |
| 1777907917 | 23.89° C | 23% | 1011 hPa | - | - | - | - |
| 1777906706 | 24.44° C | 23% | 1011 hPa | - | - | - | - |
| 1777906100 | 25° C | 22% | 1011 hPa | - | - | - | - |
| 1777905495 | 25° C | 24% | 1011 hPa | - | - | - | - |
| 1777904889 | 25.56° C | 25% | 1011 hPa | - | - | - | - |
* Rain since midnight (hover to see other rain measurements)
** Current wind speed in m/s (hover to see current wind gust speed)